Chester, Connecticut
Current Conditions -  °F | °C
As of 3:35 PM on Tuesday 21 Oct 2014 (Local Time) from KSNC Reporting Station
Broken Clouds Broken Clouds  
Wind Chill: 18°   Ceiling: 7500
Heat Index: 18°   Visibility: 10mi
Dew Point: 11°   Wind: 5mph
Humidity: 64%   Direction: 180°S
Pressure: 29.88"   Gusts: NA
Location:  41.4°N, 72.45°W
Report Text: KSNC 211935Z AUTO 18004KT 10SM BKN075 18/11 A2988 RMK AO2
Loading
Personal Weather Stations






























Interactive Weather Map
Tropical Storm Tracking
New forecast layout! Learn more

10-Day Weather Forecast

Advertisements
Track Severe Weather on mobile